createdAt,value
2018-12-30T00:00:03.001Z,4.75
2018-12-30T00:01:02.394Z,4.75
2018-12-30T00:02:02.687Z,4.75
2018-12-30T00:03:02.993Z,4.75
2018-12-30T00:04:02.651Z,4.75
2018-12-30T00:05:03.406Z,4.75
2018-12-30T00:06:02.964Z,4.81
2018-12-30T00:07:02.682Z,4.81
2018-12-30T00:08:03.019Z,4.81
2018-12-30T00:09:02.275Z,4.81
2018-12-30T00:10:02.843Z,4.81
2018-12-30T00:11:03.264Z,4.81
2018-12-30T00:12:02.837Z,4.81
2018-12-30T00:13:03.151Z,4.81
2018-12-30T00:14:02.681Z,4.81
2018-12-30T00:15:02.997Z,4.87
2018-12-30T00:16:02.287Z,4.87
2018-12-30T00:17:02.651Z,4.87
2018-12-30T00:18:02.919Z,4.87
2018-12-30T00:19:03.261Z,4.87
2018-12-30T00:20:02.602Z,4.87
2018-12-30T00:21:08.884Z,4.87
2018-12-30T00:22:02.539Z,4.87
2018-12-30T00:23:03.171Z,4.87
2018-12-30T00:24:02.518Z,4.81
2018-12-30T00:25:02.829Z,4.81
2018-12-30T00:26:03.150Z,4.87
2018-12-30T00:27:02.457Z,4.87
2018-12-30T00:28:02.812Z,4.81
2018-12-30T00:29:03.168Z,4.87
2018-12-30T00:30:02.531Z,4.81
2018-12-30T00:31:02.920Z,4.81
2018-12-30T00:32:02.430Z,4.87
2018-12-30T00:33:02.821Z,4.81
2018-12-30T00:34:03.170Z,4.81
2018-12-30T00:35:02.437Z,4.81
2018-12-30T00:36:02.841Z,4.81
2018-12-30T00:37:03.150Z,4.81
2018-12-30T00:38:02.520Z,4.81
2018-12-30T00:39:02.885Z,4.87
2018-12-30T00:40:02.445Z,4.87
2018-12-30T00:41:02.783Z,4.87
2018-12-30T00:42:03.089Z,4.87
2018-12-30T00:43:02.364Z,4.87
2018-12-30T00:44:02.732Z,4.87
2018-12-30T00:45:03.125Z,4.81
2018-12-30T00:46:02.435Z,4.87
2018-12-30T00:47:02.788Z,4.87
2018-12-30T00:48:03.228Z,4.93
2018-12-30T00:49:02.512Z,4.93
2018-12-30T00:50:02.840Z,4.93
2018-12-30T00:51:03.129Z,4.87
2018-12-30T00:52:02.429Z,4.87
2018-12-30T00:53:02.756Z,4.93
2018-12-30T00:54:03.069Z,4.93
2018-12-30T00:55:02.357Z,4.93
2018-12-30T00:56:02.735Z,4.93
2018-12-30T00:57:02.276Z,4.93
2018-12-30T00:58:02.630Z,4.93
2018-12-30T00:59:02.914Z,4.87
2018-12-30T01:00:03.246Z,4.93
2018-12-30T01:01:02.577Z,4.93
2018-12-30T01:02:02.972Z,4.87
2018-12-30T01:03:02.269Z,4.93
2018-12-30T01:04:02.596Z,4.93
2018-12-30T01:05:03.227Z,4.87
2018-12-30T01:06:02.519Z,4.87
2018-12-30T01:07:02.900Z,4.93
2018-12-30T01:08:03.155Z,4.93
2018-12-30T01:09:02.435Z,4.93
2018-12-30T01:10:02.783Z,4.93
2018-12-30T01:11:03.073Z,4.87
2018-12-30T01:12:02.408Z,4.93
2018-12-30T01:13:02.996Z,4.93
2018-12-30T01:14:02.277Z,4.93
2018-12-30T01:15:02.597Z,5
2018-12-30T01:16:02.941Z,4.93
2018-12-30T01:17:02.335Z,4.93
2018-12-30T01:18:02.737Z,4.93
2018-12-30T01:19:03.089Z,5
2018-12-30T01:20:02.358Z,4.93
2018-12-30T01:21:02.998Z,5
2018-12-30T01:22:02.277Z,5
2018-12-30T01:23:02.681Z,5
2018-12-30T01:24:02.995Z,4.93
2018-12-30T01:25:02.299Z,5
2018-12-30T01:26:02.617Z,5
2018-12-30T01:27:02.973Z,5
2018-12-30T01:28:02.281Z,5
2018-12-30T01:29:02.664Z,5
2018-12-30T01:30:03.008Z,5
2018-12-30T01:31:02.272Z,5
2018-12-30T01:32:02.661Z,5
2018-12-30T01:33:02.998Z,5.06
2018-12-30T01:34:02.283Z,5
2018-12-30T01:35:02.680Z,5
2018-12-30T01:36:02.998Z,5
2018-12-30T01:37:02.291Z,5.06
2018-12-30T01:38:02.889Z,5.06
2018-12-30T01:39:03.240Z,5.06
2018-12-30T01:40:02.514Z,5.06
2018-12-30T01:41:02.918Z,5
2018-12-30T01:42:03.242Z,5
2018-12-30T01:43:02.512Z,5.06
2018-12-30T01:44:02.864Z,5.06
2018-12-30T01:45:03.150Z,5.06
2018-12-30T01:46:02.430Z,5
2018-12-30T01:47:02.871Z,5.06
2018-12-30T01:48:03.177Z,5.06
2018-12-30T01:49:02.525Z,5.12
2018-12-30T01:50:02.835Z,5.06
2018-12-30T01:51:03.162Z,5.06
2018-12-30T01:52:02.563Z,5.06
2018-12-30T01:53:02.891Z,5.12
2018-12-30T01:54:03.232Z,5.12
2018-12-30T01:55:02.673Z,5.12
2018-12-30T01:56:02.988Z,5.12
2018-12-30T01:57:02.271Z,5.12
2018-12-30T01:58:02.603Z,5.12
2018-12-30T01:59:03.050Z,5.18
2018-12-30T02:00:02.361Z,5.18
2018-12-30T02:01:02.686Z,5.18
2018-12-30T02:02:03.014Z,5.18
2018-12-30T02:03:02.351Z,5.18
2018-12-30T02:04:02.767Z,5.18
2018-12-30T02:05:03.071Z,5.18
2018-12-30T02:06:02.371Z,5.25
2018-12-30T02:07:02.670Z,5.25
2018-12-30T02:08:03.244Z,5.25
2018-12-30T02:09:02.666Z,5.25
2018-12-30T02:10:03.326Z,5.31
2018-12-30T02:11:02.847Z,5.31
2018-12-30T02:12:02.585Z,5.31
2018-12-30T02:13:03.129Z,5.31
2018-12-30T02:14:02.643Z,5.37
2018-12-30T02:15:03.004Z,5.37
2018-12-30T02:16:02.266Z,5.37
2018-12-30T02:17:02.617Z,5.37
2018-12-30T02:18:02.921Z,5.37
2018-12-30T02:19:03.245Z,5.31
2018-12-30T02:20:02.563Z,5.31
2018-12-30T02:21:03.279Z,5.37
2018-12-30T02:22:02.604Z,5.37
2018-12-30T02:23:02.912Z,5.37
2018-12-30T02:24:03.233Z,5.43
2018-12-30T02:25:02.521Z,5.43
2018-12-30T02:26:02.899Z,5.43
2018-12-30T02:27:03.252Z,5.5
2018-12-30T02:28:02.522Z,5.5
2018-12-30T02:29:02.851Z,5.5
2018-12-30T02:30:02.454Z,5.43
2018-12-30T02:31:02.765Z,5.43
2018-12-30T02:32:03.090Z,5.5
2018-12-30T02:33:02.457Z,5.5
2018-12-30T02:34:02.763Z,5.56
2018-12-30T02:35:03.076Z,5.56
2018-12-30T02:36:02.354Z,5.56
2018-12-30T02:37:02.688Z,5.56
2018-12-30T02:38:03.048Z,5.56
2018-12-30T02:39:02.692Z,5.56
2018-12-30T02:40:03.016Z,5.62
2018-12-30T02:41:02.289Z,5.56
2018-12-30T02:42:02.651Z,5.56
2018-12-30T02:43:02.921Z,5.56
2018-12-30T02:44:03.331Z,5.56
2018-12-30T02:45:02.609Z,5.5
2018-12-30T02:46:02.923Z,5.56
2018-12-30T02:47:03.240Z,5.56
2018-12-30T02:48:02.515Z,5.5
2018-12-30T02:49:02.900Z,5.56
2018-12-30T02:50:03.217Z,5.56
2018-12-30T02:51:02.527Z,5.56
2018-12-30T02:52:02.834Z,5.56
2018-12-30T02:53:03.155Z,5.56
2018-12-30T02:54:02.451Z,5.62
2018-12-30T02:55:02.804Z,5.62
2018-12-30T02:56:03.165Z,5.62
2018-12-30T02:57:02.507Z,5.56
2018-12-30T02:58:02.842Z,5.56
2018-12-30T02:59:03.170Z,5.62
2018-12-30T03:00:02.442Z,5.68
2018-12-30T03:01:02.765Z,5.62
2018-12-30T03:02:03.207Z,5.68
2018-12-30T03:03:02.531Z,5.68
2018-12-30T03:04:02.849Z,5.68
2018-12-30T03:05:02.269Z,5.68
2018-12-30T03:06:02.610Z,5.68
2018-12-30T03:07:02.968Z,5.68
2018-12-30T03:08:02.374Z,5.68
2018-12-30T03:09:02.675Z,5.68
2018-12-30T03:10:02.996Z,5.75
2018-12-30T03:11:02.296Z,5.68
2018-12-30T03:12:02.658Z,5.68
2018-12-30T03:13:02.966Z,5.68
2018-12-30T03:14:02.281Z,5.75
2018-12-30T03:15:03.487Z,5.75
2018-12-30T03:16:02.750Z,5.75
2018-12-30T03:17:03.082Z,5.68
2018-12-30T03:18:02.374Z,5.75
2018-12-30T03:19:02.736Z,5.75
2018-12-30T03:20:02.995Z,5.81
2018-12-30T03:21:02.284Z,5.81
2018-12-30T03:22:02.593Z,5.75
2018-12-30T03:23:02.922Z,5.75
2018-12-30T03:24:02.520Z,5.75
2018-12-30T03:25:02.904Z,5.75
2018-12-30T03:26:03.203Z,5.75
2018-12-30T03:27:02.530Z,5.81
2018-12-30T03:28:03.090Z,5.75
2018-12-30T03:29:02.350Z,5.75
2018-12-30T03:30:02.644Z,5.68
2018-12-30T03:31:03.017Z,5.75
2018-12-30T03:32:02.288Z,5.75
2018-12-30T03:33:02.615Z,5.75
2018-12-30T03:34:02.924Z,5.75
2018-12-30T03:35:03.236Z,5.81
2018-12-30T03:36:02.579Z,5.75
2018-12-30T03:37:02.934Z,5.81
2018-12-30T03:38:03.243Z,5.81
2018-12-30T03:39:02.512Z,5.75
2018-12-30T03:40:02.782Z,5.75
2018-12-30T03:41:03.068Z,5.75
2018-12-30T03:42:02.362Z,5.75
2018-12-30T03:43:02.762Z,5.81
2018-12-30T03:44:03.142Z,5.87
2018-12-30T03:45:02.450Z,5.81
2018-12-30T03:46:02.764Z,5.81
2018-12-30T03:47:03.076Z,5.87
2018-12-30T03:48:02.355Z,5.87
2018-12-30T03:49:02.775Z,5.87
2018-12-30T03:50:03.073Z,5.81
2018-12-30T03:51:02.360Z,5.87
2018-12-30T03:52:08.240Z,5.81
2018-12-30T03:53:02.842Z,5.87
2018-12-30T03:54:03.212Z,5.87
2018-12-30T03:55:02.529Z,5.81
2018-12-30T03:56:02.837Z,5.87
2018-12-30T03:57:03.147Z,5.87
2018-12-30T03:58:02.522Z,5.87
2018-12-30T03:59:02.929Z,5.87
2018-12-30T04:00:03.340Z,5.87
2018-12-30T04:01:02.600Z,5.87
2018-12-30T04:02:02.911Z,5.93
2018-12-30T04:03:03.242Z,5.93
2018-12-30T04:04:02.546Z,5.93
2018-12-30T04:05:02.891Z,5.93
2018-12-30T04:06:03.210Z,6
2018-12-30T04:07:02.518Z,5.93
2018-12-30T04:08:02.834Z,6
2018-12-30T04:09:04.043Z,6.06
2018-12-30T04:10:02.356Z,6.06
2018-12-30T04:11:02.717Z,6.06
2018-12-30T04:12:03.047Z,6
2018-12-30T04:13:02.365Z,6.06
2018-12-30T04:14:02.754Z,6.06
2018-12-30T04:15:03.002Z,6.06
2018-12-30T04:16:02.290Z,6.06
2018-12-30T04:17:02.630Z,6.06
2018-12-30T04:18:02.971Z,6.12
2018-12-30T04:19:02.291Z,6.12
2018-12-30T04:20:02.598Z,6.06
2018-12-30T04:21:02.921Z,6.06
2018-12-30T04:22:03.240Z,6.06
2018-12-30T04:23:02.579Z,6.12
2018-12-30T04:24:02.930Z,6.06
2018-12-30T04:25:03.236Z,6.06
2018-12-30T04:26:02.521Z,6.06
2018-12-30T04:27:02.828Z,6.12
2018-12-30T04:28:03.158Z,6.12
2018-12-30T04:29:02.726Z,6.06
2018-12-30T04:30:03.054Z,6.12
2018-12-30T04:31:02.353Z,6.12
2018-12-30T04:32:02.596Z,6.12
2018-12-30T04:33:02.830Z,6.18
2018-12-30T04:34:03.091Z,6.12
2018-12-30T04:35:02.357Z,6.12
2018-12-30T04:36:02.745Z,6.18
2018-12-30T04:37:03.012Z,6.12
2018-12-30T04:38:02.277Z,6.18
2018-12-30T04:39:02.601Z,6.12
2018-12-30T04:40:02.919Z,6.12
2018-12-30T04:41:03.251Z,6.18
2018-12-30T04:42:02.576Z,6.18
2018-12-30T04:43:02.836Z,6.18
2018-12-30T04:44:03.217Z,6.18
2018-12-30T04:45:02.542Z,6.18
2018-12-30T04:46:02.872Z,6.18
2018-12-30T04:47:03.164Z,6.18
2018-12-30T04:48:02.486Z,6.18
2018-12-30T04:49:02.752Z,6.18
2018-12-30T04:50:03.030Z,6.18
2018-12-30T04:51:02.275Z,6.18
2018-12-30T04:52:03.486Z,6.18
2018-12-30T04:53:02.830Z,6.18
2018-12-30T04:54:03.136Z,6.18
2018-12-30T04:55:02.445Z,6.18
2018-12-30T04:56:02.781Z,6.12
2018-12-30T04:57:03.072Z,6.12
2018-12-30T04:58:02.362Z,6.12
2018-12-30T04:59:02.681Z,6.06
2018-12-30T05:00:03.054Z,6.12
2018-12-30T05:01:02.347Z,6.12
2018-12-30T05:02:02.681Z,6.12
2018-12-30T05:03:03.005Z,6.18
2018-12-30T05:04:02.274Z,6.12
2018-12-30T05:05:02.624Z,6.12
2018-12-30T05:06:02.972Z,6.12
2018-12-30T05:07:02.261Z,6.12
2018-12-30T05:08:03.422Z,6.12
2018-12-30T05:09:02.771Z,6.06
2018-12-30T05:10:03.079Z,6
2018-12-30T05:11:02.382Z,6
2018-12-30T05:12:02.741Z,6
2018-12-30T05:13:03.001Z,6
2018-12-30T05:14:02.286Z,6
2018-12-30T05:15:02.661Z,6
2018-12-30T05:16:02.972Z,5.93
2018-12-30T05:17:02.329Z,5.93
2018-12-30T05:18:02.656Z,5.93
2018-12-30T05:19:02.907Z,5.93
2018-12-30T05:20:03.235Z,5.93
2018-12-30T05:21:02.516Z,5.93
2018-12-30T05:22:02.854Z,5.93
2018-12-30T05:23:03.249Z,5.87
2018-12-30T05:24:02.517Z,5.87
2018-12-30T05:25:02.836Z,5.87
2018-12-30T05:26:02.360Z,5.87
2018-12-30T05:27:02.690Z,5.87
2018-12-30T05:28:02.997Z,5.87
2018-12-30T05:29:02.429Z,5.81
2018-12-30T05:30:02.677Z,5.81
2018-12-30T05:31:03.054Z,5.81
2018-12-30T05:32:02.384Z,5.81
2018-12-30T05:33:02.697Z,5.81
2018-12-30T05:34:03.084Z,5.81
2018-12-30T05:35:02.361Z,5.81
2018-12-30T05:36:02.680Z,5.81
2018-12-30T05:37:03.008Z,5.81
2018-12-30T05:38:02.276Z,5.81
2018-12-30T05:39:02.613Z,5.81
2018-12-30T05:40:02.980Z,5.87
2018-12-30T05:41:02.297Z,5.81
2018-12-30T05:42:02.592Z,5.87
2018-12-30T05:43:02.836Z,5.81
2018-12-30T05:44:03.156Z,5.81
2018-12-30T05:45:02.493Z,5.81
2018-12-30T05:46:02.807Z,5.81
2018-12-30T05:47:04.015Z,5.81
2018-12-30T05:48:03.173Z,5.75
2018-12-30T05:49:02.439Z,5.75
2018-12-30T05:50:02.751Z,5.81
2018-12-30T05:51:03.100Z,5.81
2018-12-30T05:52:02.403Z,5.75
2018-12-30T05:53:02.681Z,5.75
2018-12-30T05:54:03.039Z,5.75
2018-12-30T05:55:02.360Z,5.75
2018-12-30T05:56:02.674Z,5.75
2018-12-30T05:57:03.056Z,5.75
2018-12-30T05:58:02.370Z,5.75
2018-12-30T05:59:02.681Z,5.68
2018-12-30T06:00:03.880Z,5.68
2018-12-30T06:01:03.166Z,5.68
2018-12-30T06:02:02.427Z,5.68
2018-12-30T06:03:03.051Z,5.68
2018-12-30T06:04:02.365Z,5.68
2018-12-30T06:05:02.677Z,5.68
2018-12-30T06:06:03.005Z,5.68
2018-12-30T06:07:02.298Z,5.68
2018-12-30T06:08:02.598Z,5.68
2018-12-30T06:09:02.977Z,5.68
2018-12-30T06:10:02.286Z,5.68
2018-12-30T06:11:02.599Z,5.68
2018-12-30T06:12:02.909Z,5.68
2018-12-30T06:13:03.233Z,5.68
2018-12-30T06:14:02.526Z,5.68
2018-12-30T06:15:02.893Z,5.68
2018-12-30T06:16:03.151Z,5.68
2018-12-30T06:17:02.442Z,5.68
2018-12-30T06:18:02.806Z,5.68
2018-12-30T06:19:03.075Z,5.62
2018-12-30T06:20:02.355Z,5.68
2018-12-30T06:21:02.732Z,5.62
2018-12-30T06:22:02.991Z,5.68
2018-12-30T06:23:02.292Z,5.62
2018-12-30T06:24:02.584Z,5.62
2018-12-30T06:25:02.833Z,5.62
2018-12-30T06:26:03.177Z,5.62
2018-12-30T06:27:02.495Z,5.62
2018-12-30T06:28:02.813Z,5.56
2018-12-30T06:29:03.091Z,5.56
2018-12-30T06:30:02.361Z,5.56
2018-12-30T06:31:02.677Z,5.56
2018-12-30T06:32:03.018Z,5.56
2018-12-30T06:33:02.376Z,5.56
2018-12-30T06:34:02.751Z,5.56
2018-12-30T06:35:03.061Z,5.56
2018-12-30T06:36:02.370Z,5.56
2018-12-30T06:37:02.692Z,5.56
2018-12-30T06:38:03.049Z,5.56
2018-12-30T06:39:02.364Z,5.56
2018-12-30T06:40:02.673Z,5.56
2018-12-30T06:41:02.988Z,5.56
2018-12-30T06:42:02.278Z,5.56
2018-12-30T06:43:02.650Z,5.56
2018-12-30T06:44:02.966Z,5.5
2018-12-30T06:45:02.277Z,5.5
2018-12-30T06:46:02.603Z,5.5
2018-12-30T06:47:02.939Z,5.5
2018-12-30T06:48:03.235Z,5.5
2018-12-30T06:49:02.600Z,5.5
2018-12-30T06:50:02.965Z,5.5
2018-12-30T06:51:02.280Z,5.5
2018-12-30T06:52:02.601Z,5.5
2018-12-30T06:53:02.932Z,5.5
2018-12-30T06:54:03.245Z,5.5
2018-12-30T06:55:02.671Z,5.5
2018-12-30T06:56:02.994Z,5.5
2018-12-30T06:57:02.271Z,5.5
2018-12-30T06:58:02.605Z,5.5
2018-12-30T06:59:02.919Z,5.43
2018-12-30T07:00:03.322Z,5.43
2018-12-30T07:01:02.608Z,5.43
2018-12-30T07:02:02.916Z,5.43
2018-12-30T07:03:03.248Z,5.43
2018-12-30T07:04:02.521Z,5.43
2018-12-30T07:05:02.953Z,5.43
2018-12-30T07:06:03.319Z,5.43
2018-12-30T07:07:02.654Z,5.43
2018-12-30T07:08:02.925Z,5.43
2018-12-30T07:09:03.255Z,5.43
2018-12-30T07:10:02.513Z,5.43
2018-12-30T07:11:02.842Z,5.43
2018-12-30T07:12:03.216Z,5.43
2018-12-30T07:13:02.532Z,5.43
2018-12-30T07:14:02.843Z,5.43
2018-12-30T07:15:03.166Z,5.43
2018-12-30T07:16:02.455Z,5.43
2018-12-30T07:17:02.810Z,5.37
2018-12-30T07:18:03.129Z,5.43
2018-12-30T07:19:02.434Z,5.43
2018-12-30T07:20:02.816Z,5.43
2018-12-30T07:21:03.212Z,5.37
2018-12-30T07:22:02.542Z,5.37
2018-12-30T07:23:05.879Z,5.37
2018-12-30T07:24:02.568Z,5.43
2018-12-30T07:25:02.845Z,5.43
2018-12-30T07:26:03.185Z,5.37
2018-12-30T07:27:02.397Z,5.37
2018-12-30T07:28:02.677Z,5.37
2018-12-30T07:29:03.019Z,5.37
2018-12-30T07:30:02.327Z,5.37
2018-12-30T07:31:02.601Z,5.37
2018-12-30T07:32:02.914Z,5.37
2018-12-30T07:33:03.157Z,5.31
2018-12-30T07:34:03.408Z,5.37
2018-12-30T07:35:02.731Z,5.37
2018-12-30T07:36:03.045Z,5.31
2018-12-30T07:37:02.344Z,5.31
2018-12-30T07:38:02.591Z,5.31
2018-12-30T07:39:02.913Z,5.31
2018-12-30T07:40:03.297Z,5.31
2018-12-30T07:41:02.597Z,5.31
2018-12-30T07:42:02.911Z,5.31
2018-12-30T07:43:03.155Z,5.31
2018-12-30T07:44:03.311Z,5.31
2018-12-30T07:45:02.600Z,5.31
2018-12-30T07:46:03.853Z,5.31
2018-12-30T07:47:03.157Z,5.31
2018-12-30T07:48:02.435Z,5.25
2018-12-30T07:49:02.755Z,5.25
2018-12-30T07:50:03.086Z,5.31
2018-12-30T07:51:02.358Z,5.25
2018-12-30T07:52:02.745Z,5.25
2018-12-30T07:53:02.999Z,5.25
2018-12-30T07:54:02.281Z,5.25
2018-12-30T07:55:02.613Z,5.25
2018-12-30T07:56:02.919Z,5.25
2018-12-30T07:57:03.242Z,5.25
2018-12-30T07:58:02.611Z,5.25
2018-12-30T07:59:02.960Z,5.25
2018-12-30T08:00:02.289Z,5.25
2018-12-30T08:01:02.590Z,5.25
2018-12-30T08:02:02.840Z,5.25
2018-12-30T08:03:03.269Z,5.25
2018-12-30T08:04:02.606Z,5.25
2018-12-30T08:05:02.933Z,5.25
2018-12-30T08:06:03.228Z,5.18
2018-12-30T08:07:02.525Z,5.25
2018-12-30T08:08:03.072Z,5.25
2018-12-30T08:09:02.415Z,5.25
2018-12-30T08:10:02.686Z,5.25
2018-12-30T08:11:02.990Z,5.25
2018-12-30T08:12:02.283Z,5.25
2018-12-30T08:13:02.592Z,5.25
2018-12-30T08:14:02.835Z,5.18
2018-12-30T08:15:03.213Z,5.25
2018-12-30T08:16:02.585Z,5.25
2018-12-30T08:17:02.917Z,5.25
2018-12-30T08:18:03.246Z,5.25
2018-12-30T08:19:02.572Z,5.25
2018-12-30T08:20:02.898Z,5.18
2018-12-30T08:21:03.291Z,5.25
2018-12-30T08:22:02.595Z,5.25
2018-12-30T08:23:03.034Z,5.25
2018-12-30T08:24:02.354Z,5.25
2018-12-30T08:25:02.675Z,5.25
2018-12-30T08:26:03.017Z,5.25
2018-12-30T08:27:02.371Z,5.25
2018-12-30T08:28:02.732Z,5.25
2018-12-30T08:29:03.001Z,5.25
2018-12-30T08:30:02.266Z,5.25
2018-12-30T08:31:02.508Z,5.25
2018-12-30T08:32:02.846Z,5.25
2018-12-30T08:33:04.038Z,5.31
2018-12-30T08:34:02.355Z,5.31
2018-12-30T08:35:02.732Z,5.31
2018-12-30T08:36:03.011Z,5.31
2018-12-30T08:37:02.293Z,5.31
2018-12-30T08:38:02.654Z,5.31
2018-12-30T08:39:03.002Z,5.31
2018-12-30T08:40:02.274Z,5.31
2018-12-30T08:41:02.599Z,5.37
2018-12-30T08:42:02.981Z,5.37
2018-12-30T08:43:02.370Z,5.37
2018-12-30T08:44:02.685Z,5.37
2018-12-30T08:45:03.005Z,5.37
2018-12-30T08:46:03.145Z,5.43
2018-12-30T08:47:02.458Z,5.43
2018-12-30T08:48:02.886Z,5.37
2018-12-30T08:49:03.163Z,5.37
2018-12-30T08:50:02.464Z,5.43
2018-12-30T08:51:02.754Z,5.43
2018-12-30T08:52:03.085Z,5.5
2018-12-30T08:53:02.413Z,5.5
2018-12-30T08:54:02.721Z,5.43
2018-12-30T08:55:03.092Z,5.43
2018-12-30T08:56:02.363Z,5.5
2018-12-30T08:57:02.763Z,5.5
2018-12-30T08:58:03.076Z,5.5
2018-12-30T08:59:03.294Z,5.5
2018-12-30T09:00:04.346Z,5.5
2018-12-30T09:01:02.671Z,5.5
2018-12-30T09:02:02.908Z,5.5
2018-12-30T09:03:03.253Z,5.43
2018-12-30T09:04:02.519Z,5.5
2018-12-30T09:05:02.888Z,5.5
2018-12-30T09:06:03.154Z,5.5
2018-12-30T09:07:02.496Z,5.56
2018-12-30T09:08:02.846Z,5.5
2018-12-30T09:09:04.933Z,5.5
2018-12-30T09:10:02.303Z,5.5
2018-12-30T09:11:02.652Z,5.5
2018-12-30T09:12:02.919Z,5.5
2018-12-30T09:13:03.228Z,5.5
2018-12-30T09:14:02.512Z,5.5
2018-12-30T09:15:02.753Z,5.5
2018-12-30T09:16:03.183Z,5.5
2018-12-30T09:17:02.528Z,5.56
2018-12-30T09:18:03.959Z,5.56
2018-12-30T09:19:02.378Z,5.56
2018-12-30T09:20:02.679Z,5.56
2018-12-30T09:21:03.977Z,5.56
2018-12-30T09:22:02.302Z,5.56
2018-12-30T09:23:02.596Z,5.56
2018-12-30T09:24:02.921Z,5.56
2018-12-30T09:25:03.257Z,5.56
2018-12-30T09:26:02.550Z,5.56
2018-12-30T09:27:02.894Z,5.56
2018-12-30T09:28:03.162Z,5.56
2018-12-30T09:29:02.446Z,5.56
2018-12-30T09:30:02.749Z,5.56
2018-12-30T09:31:02.998Z,5.56
2018-12-30T09:32:02.337Z,5.56
2018-12-30T09:33:03.596Z,5.62
2018-12-30T09:34:02.916Z,5.56
2018-12-30T09:35:03.237Z,5.62
2018-12-30T09:36:02.530Z,5.62
2018-12-30T09:37:02.854Z,5.62
2018-12-30T09:38:03.209Z,5.62
2018-12-30T09:39:02.601Z,5.68
2018-12-30T09:40:02.918Z,5.62
2018-12-30T09:41:03.240Z,5.68
2018-12-30T09:42:02.547Z,5.68
2018-12-30T09:43:02.893Z,5.75
2018-12-30T09:44:03.212Z,5.75
2018-12-30T09:45:02.521Z,5.75
2018-12-30T09:46:02.867Z,5.75
2018-12-30T09:47:03.157Z,5.75
2018-12-30T09:48:02.434Z,5.75
2018-12-30T09:49:02.765Z,5.81
2018-12-30T09:50:03.163Z,5.81
2018-12-30T09:51:02.439Z,5.87
2018-12-30T09:52:02.771Z,5.87
2018-12-30T09:53:03.083Z,5.87
2018-12-30T09:54:02.342Z,5.81
2018-12-30T09:55:02.600Z,5.87
2018-12-30T09:56:02.992Z,5.87
2018-12-30T09:57:02.274Z,5.93
2018-12-30T09:58:02.657Z,5.93
2018-12-30T09:59:02.919Z,5.93
2018-12-30T10:00:03.249Z,5.93
2018-12-30T10:01:02.527Z,5.93
2018-12-30T10:02:02.864Z,6
2018-12-30T10:03:03.166Z,6
2018-12-30T10:04:02.403Z,6
2018-12-30T10:05:02.669Z,6.06
2018-12-30T10:06:02.921Z,6.06
2018-12-30T10:07:04.211Z,6.06
2018-12-30T10:08:02.522Z,6.06
2018-12-30T10:09:02.847Z,6.12
2018-12-30T10:10:03.177Z,6.12
2018-12-30T10:11:02.444Z,6.12
2018-12-30T10:12:02.837Z,6.12
2018-12-30T10:13:04.062Z,6.06
2018-12-30T10:14:02.436Z,6.12
2018-12-30T10:15:09.449Z,6.12
2018-12-30T10:16:03.153Z,6.12
2018-12-30T10:17:02.505Z,6.12
2018-12-30T10:18:02.763Z,6.12
2018-12-30T10:19:03.077Z,6.18
2018-12-30T10:20:02.377Z,6.18
2018-12-30T10:21:02.664Z,6.18
2018-12-30T10:22:02.974Z,6.18
2018-12-30T10:23:02.286Z,6.18
2018-12-30T10:24:02.614Z,6.18
2018-12-30T10:25:02.917Z,6.18
2018-12-30T10:26:03.250Z,6.18
2018-12-30T10:27:02.586Z,6.18
2018-12-30T10:28:02.892Z,6.25
2018-12-30T10:29:03.198Z,6.18
2018-12-30T10:30:02.536Z,6.25
2018-12-30T10:31:02.855Z,6.25
2018-12-30T10:32:03.184Z,6.25
2018-12-30T10:33:02.447Z,6.25
2018-12-30T10:34:02.833Z,6.25
2018-12-30T10:35:03.169Z,6.25
2018-12-30T10:36:02.447Z,6.25
2018-12-30T10:37:02.756Z,6.25
2018-12-30T10:38:03.071Z,6.25
2018-12-30T10:39:03.326Z,6.25
2018-12-30T10:40:03.486Z,6.25
2018-12-30T10:41:02.743Z,6.25
2018-12-30T10:42:03.016Z,6.25
2018-12-30T10:43:02.286Z,6.31
2018-12-30T10:44:02.659Z,6.31
2018-12-30T10:45:02.978Z,6.31
2018-12-30T10:46:03.150Z,6.37
2018-12-30T10:47:02.446Z,6.37
2018-12-30T10:48:02.762Z,6.37
2018-12-30T10:49:03.096Z,6.31
2018-12-30T10:50:02.359Z,6.37
2018-12-30T10:51:02.730Z,6.31
2018-12-30T10:52:02.996Z,6.31
2018-12-30T10:53:02.295Z,6.37
2018-12-30T10:54:02.614Z,6.31
2018-12-30T10:55:02.914Z,6.31
2018-12-30T10:56:03.217Z,6.31
2018-12-30T10:57:02.589Z,6.31
2018-12-30T10:58:02.856Z,6.25
2018-12-30T10:59:03.203Z,6.25
2018-12-30T11:00:02.513Z,6.25
2018-12-30T11:01:02.839Z,6.25
2018-12-30T11:02:03.282Z,6.37
2018-12-30T11:03:02.600Z,6.31
2018-12-30T11:04:02.915Z,6.37
2018-12-30T11:05:03.162Z,6.37
2018-12-30T11:06:02.448Z,6.43
2018-12-30T11:07:02.767Z,6.43
2018-12-30T11:08:03.166Z,6.43
2018-12-30T11:09:02.476Z,6.43
2018-12-30T11:10:02.857Z,6.43
2018-12-30T11:11:03.146Z,6.43
2018-12-30T11:12:02.435Z,6.37
2018-12-30T11:13:02.764Z,6.37
2018-12-30T11:14:03.167Z,6.37
2018-12-30T11:15:02.556Z,6.43
2018-12-30T11:16:02.912Z,6.5
2018-12-30T11:17:03.234Z,6.43
2018-12-30T11:18:02.523Z,6.43
2018-12-30T11:19:02.886Z,6.43
2018-12-30T11:20:03.152Z,6.43
2018-12-30T11:21:02.444Z,6.43
2018-12-30T11:22:02.768Z,6.37
2018-12-30T11:23:03.083Z,6.37
2018-12-30T11:24:08.436Z,6.43
2018-12-30T11:25:03.062Z,6.5
2018-12-30T11:26:02.363Z,6.5
2018-12-30T11:27:02.681Z,6.5
2018-12-30T11:28:03.001Z,6.5
2018-12-30T11:29:02.284Z,6.5
2018-12-30T11:30:02.837Z,6.56
2018-12-30T11:31:04.169Z,6.5
2018-12-30T11:32:02.440Z,6.56
2018-12-30T11:33:02.784Z,6.56
2018-12-30T11:34:03.081Z,6.56
2018-12-30T11:35:03.232Z,6.62
2018-12-30T11:36:02.568Z,6.62
2018-12-30T11:37:03.018Z,6.68
2018-12-30T11:38:02.284Z,6.62
2018-12-30T11:39:02.587Z,6.62
2018-12-30T11:40:02.925Z,6.62
2018-12-30T11:41:03.226Z,6.62
2018-12-30T11:42:02.536Z,6.62
2018-12-30T11:43:05.492Z,6.68
2018-12-30T11:44:02.779Z,6.68
2018-12-30T11:45:03.136Z,6.68
2018-12-30T11:46:02.456Z,6.68
2018-12-30T11:47:02.927Z,6.68
2018-12-30T11:48:03.241Z,6.75
2018-12-30T11:49:02.528Z,6.68
2018-12-30T11:50:02.897Z,6.68
2018-12-30T11:51:03.179Z,6.68
2018-12-30T11:52:02.444Z,6.68
2018-12-30T11:53:02.775Z,6.75
2018-12-30T11:54:03.081Z,6.68
2018-12-30T11:55:02.349Z,6.62
2018-12-30T11:56:02.605Z,6.68
2018-12-30T11:57:03.089Z,6.68
2018-12-30T11:58:02.492Z,6.68
2018-12-30T11:59:02.755Z,6.62
2018-12-30T12:00:03.355Z,6.62
2018-12-30T12:01:02.737Z,6.62
2018-12-30T12:02:03.005Z,6.62
2018-12-30T12:03:02.289Z,6.62
2018-12-30T12:04:02.660Z,6.62
2018-12-30T12:05:02.923Z,6.62
2018-12-30T12:06:03.258Z,6.62
2018-12-30T12:07:02.529Z,6.56
2018-12-30T12:08:02.844Z,6.68
2018-12-30T12:09:03.275Z,6.68
2018-12-30T12:10:02.514Z,6.75
2018-12-30T12:11:02.749Z,6.68
2018-12-30T12:12:03.080Z,6.68
2018-12-30T12:13:02.361Z,6.68
2018-12-30T12:14:02.703Z,6.68
2018-12-30T12:15:03.025Z,6.75
2018-12-30T12:16:02.332Z,6.68
2018-12-30T12:17:02.595Z,6.68
2018-12-30T12:18:02.840Z,6.68
2018-12-30T12:19:03.165Z,6.68
2018-12-30T12:20:02.501Z,6.68
2018-12-30T12:21:02.766Z,6.68
2018-12-30T12:22:03.095Z,6.68
2018-12-30T12:23:02.350Z,6.68
2018-12-30T12:24:02.743Z,6.75
2018-12-30T12:25:03.008Z,6.75
2018-12-30T12:26:02.389Z,6.75
2018-12-30T12:27:03.574Z,6.75
2018-12-30T12:28:02.835Z,6.75
2018-12-30T12:29:03.172Z,6.75
2018-12-30T12:30:02.437Z,6.75
2018-12-30T12:31:03.752Z,6.81
2018-12-30T12:32:02.988Z,6.81
2018-12-30T12:33:02.279Z,6.81
2018-12-30T12:34:02.600Z,6.81
2018-12-30T12:35:02.917Z,6.81
2018-12-30T12:36:03.160Z,6.81
2018-12-30T12:37:03.386Z,6.75
2018-12-30T12:38:02.678Z,6.75
2018-12-30T12:39:02.976Z,6.68
2018-12-30T12:40:02.287Z,6.75
2018-12-30T12:41:02.602Z,6.75
2018-12-30T12:42:03.042Z,6.75
2018-12-30T12:43:02.353Z,6.75
2018-12-30T12:44:02.630Z,6.81
2018-12-30T12:45:02.921Z,6.81
2018-12-30T12:46:03.354Z,6.75
2018-12-30T12:47:02.696Z,6.75
2018-12-30T12:48:03.024Z,6.75
2018-12-30T12:49:02.285Z,6.81
2018-12-30T12:50:02.592Z,6.81
2018-12-30T12:51:02.832Z,6.81
2018-12-30T12:52:03.071Z,6.81
2018-12-30T12:53:02.466Z,6.81
2018-12-30T12:54:02.748Z,6.81
2018-12-30T12:55:03.019Z,6.81
2018-12-30T12:56:02.293Z,6.81
2018-12-30T12:57:02.599Z,6.81
2018-12-30T12:58:02.978Z,6.81
2018-12-30T12:59:02.281Z,6.81
2018-12-30T13:00:02.605Z,6.81
2018-12-30T13:01:02.919Z,6.81
2018-12-30T13:02:03.358Z,6.87
2018-12-30T13:03:03.565Z,6.81
2018-12-30T13:04:02.901Z,6.75
2018-12-30T13:05:03.162Z,6.81
2018-12-30T13:06:02.459Z,6.75
2018-12-30T13:07:02.769Z,6.81
2018-12-30T13:08:03.089Z,6.81
2018-12-30T13:09:02.364Z,6.81
2018-12-30T13:10:02.736Z,6.81
2018-12-30T13:11:02.991Z,6.87
2018-12-30T13:12:02.277Z,6.81
2018-12-30T13:13:03.482Z,6.87
2018-12-30T13:14:02.842Z,6.87
2018-12-30T13:15:03.207Z,6.87
2018-12-30T13:16:03.426Z,6.87
2018-12-30T13:17:03.055Z,6.81
2018-12-30T13:18:02.481Z,6.87
2018-12-30T13:19:02.762Z,6.87
2018-12-30T13:20:03.126Z,6.87
2018-12-30T13:21:02.460Z,6.87
2018-12-30T13:22:02.754Z,6.87
2018-12-30T13:23:02.990Z,6.87